sensor_id;sensor_type;location;lat;lon;timestamp;P1;durP1;ratioP1;P2;durP2;ratioP2
25153;SDS011;47555;51.038;6.280;2023-07-28T00:00:50;5.07;;;2.42;;
25153;SDS011;47555;51.038;6.280;2023-07-28T00:03:16;4.43;;;2.60;;
25153;SDS011;47555;51.038;6.280;2023-07-28T00:05:42;5.72;;;3.20;;
25153;SDS011;47555;51.038;6.280;2023-07-28T00:08:08;5.97;;;2.72;;
25153;SDS011;47555;51.038;6.280;2023-07-28T00:10:39;5.47;;;2.70;;
25153;SDS011;47555;51.038;6.280;2023-07-28T00:13:05;5.83;;;2.70;;
25153;SDS011;47555;51.038;6.280;2023-07-28T00:15:31;3.13;;;2.38;;
25153;SDS011;47555;51.038;6.280;2023-07-28T00:17:56;3.67;;;2.17;;
25153;SDS011;47555;51.038;6.280;2023-07-28T00:20:24;4.43;;;2.45;;
25153;SDS011;47555;51.038;6.280;2023-07-28T00:22:51;2.78;;;2.38;;
25153;SDS011;47555;51.038;6.280;2023-07-28T00:25:17;3.50;;;2.17;;
25153;SDS011;47555;51.038;6.280;2023-07-28T00:27:43;4.65;;;2.33;;
25153;SDS011;47555;51.038;6.280;2023-07-28T00:30:09;4.53;;;2.33;;
25153;SDS011;47555;51.038;6.280;2023-07-28T00:32:36;4.63;;;2.53;;
25153;SDS011;47555;51.038;6.280;2023-07-28T00:35:02;3.53;;;2.30;;
25153;SDS011;47555;51.038;6.280;2023-07-28T00:37:28;3.25;;;2.40;;
25153;SDS011;47555;51.038;6.280;2023-07-28T00:39:54;4.60;;;2.60;;
25153;SDS011;47555;51.038;6.280;2023-07-28T00:42:20;3.20;;;2.30;;
25153;SDS011;47555;51.038;6.280;2023-07-28T00:44:46;3.55;;;2.47;;
25153;SDS011;47555;51.038;6.280;2023-07-28T00:47:12;5.10;;;2.65;;
25153;SDS011;47555;51.038;6.280;2023-07-28T00:49:38;4.20;;;2.60;;
25153;SDS011;47555;51.038;6.280;2023-07-28T00:52:06;3.83;;;2.42;;
25153;SDS011;47555;51.038;6.280;2023-07-28T00:54:33;3.22;;;2.38;;
25153;SDS011;47555;51.038;6.280;2023-07-28T00:56:59;5.28;;;3.25;;
25153;SDS011;47555;51.038;6.280;2023-07-28T00:59:25;3.55;;;2.70;;
25153;SDS011;47555;51.038;6.280;2023-07-28T01:01:51;4.38;;;2.45;;
25153;SDS011;47555;51.038;6.280;2023-07-28T01:04:17;4.97;;;2.85;;
25153;SDS011;47555;51.038;6.280;2023-07-28T01:06:47;4.78;;;2.75;;
25153;SDS011;47555;51.038;6.280;2023-07-28T01:09:18;5.85;;;2.63;;
25153;SDS011;47555;51.038;6.280;2023-07-28T01:11:53;4.13;;;2.80;;
25153;SDS011;47555;51.038;6.280;2023-07-28T01:14:19;4.53;;;2.50;;
25153;SDS011;47555;51.038;6.280;2023-07-28T01:16:45;5.60;;;2.63;;
25153;SDS011;47555;51.038;6.280;2023-07-28T01:19:11;4.50;;;2.90;;
25153;SDS011;47555;51.038;6.280;2023-07-28T01:21:38;3.60;;;2.90;;
25153;SDS011;47555;51.038;6.280;2023-07-28T01:26:53;3.35;;;2.60;;
25153;SDS011;47555;51.038;6.280;2023-07-28T01:29:19;4.57;;;2.78;;
25153;SDS011;47555;51.038;6.280;2023-07-28T01:31:47;3.95;;;3.15;;
25153;SDS011;47555;51.038;6.280;2023-07-28T01:34:13;5.30;;;3.40;;
25153;SDS011;47555;51.038;6.280;2023-07-28T01:36:39;6.78;;;4.00;;
25153;SDS011;47555;51.038;6.280;2023-07-28T01:39:08;5.38;;;3.47;;
25153;SDS011;47555;51.038;6.280;2023-07-28T01:41:34;5.63;;;3.50;;
25153;SDS011;47555;51.038;6.280;2023-07-28T01:44:00;6.65;;;3.70;;
25153;SDS011;47555;51.038;6.280;2023-07-28T01:46:25;5.70;;;3.90;;
25153;SDS011;47555;51.038;6.280;2023-07-28T01:48:51;7.13;;;3.85;;
25153;SDS011;47555;51.038;6.280;2023-07-28T01:51:18;6.07;;;4.00;;
25153;SDS011;47555;51.038;6.280;2023-07-28T01:53:43;6.63;;;4.18;;
25153;SDS011;47555;51.038;6.280;2023-07-28T01:56:09;6.85;;;3.92;;
25153;SDS011;47555;51.038;6.280;2023-07-28T01:58:35;6.72;;;4.35;;
25153;SDS011;47555;51.038;6.280;2023-07-28T02:01:01;5.90;;;3.75;;
25153;SDS011;47555;51.038;6.280;2023-07-28T02:03:27;4.93;;;3.50;;
25153;SDS011;47555;51.038;6.280;2023-07-28T02:05:54;6.53;;;3.80;;
25153;SDS011;47555;51.038;6.280;2023-07-28T02:08:20;7.05;;;3.60;;
25153;SDS011;47555;51.038;6.280;2023-07-28T02:10:46;6.15;;;3.92;;
25153;SDS011;47555;51.038;6.280;2023-07-28T02:13:12;6.28;;;3.85;;
25153;SDS011;47555;51.038;6.280;2023-07-28T02:15:38;6.75;;;4.20;;
25153;SDS011;47555;51.038;6.280;2023-07-28T02:18:04;6.97;;;3.92;;
25153;SDS011;47555;51.038;6.280;2023-07-28T02:20:30;6.70;;;4.15;;
25153;SDS011;47555;51.038;6.280;2023-07-28T02:22:58;5.93;;;3.90;;
25153;SDS011;47555;51.038;6.280;2023-07-28T02:25:24;5.25;;;3.72;;
25153;SDS011;47555;51.038;6.280;2023-07-28T02:27:50;5.45;;;3.65;;
25153;SDS011;47555;51.038;6.280;2023-07-28T02:30:16;6.05;;;3.58;;
25153;SDS011;47555;51.038;6.280;2023-07-28T02:32:42;6.35;;;4.00;;
25153;SDS011;47555;51.038;6.280;2023-07-28T02:35:08;5.97;;;3.80;;
25153;SDS011;47555;51.038;6.280;2023-07-28T02:37:35;6.65;;;3.25;;
25153;SDS011;47555;51.038;6.280;2023-07-28T02:40:01;5.07;;;3.63;;
25153;SDS011;47555;51.038;6.280;2023-07-28T02:42:27;8.00;;;3.75;;
25153;SDS011;47555;51.038;6.280;2023-07-28T02:44:53;5.43;;;3.28;;
25153;SDS011;47555;51.038;6.280;2023-07-28T02:47:19;5.55;;;2.88;;
25153;SDS011;47555;51.038;6.280;2023-07-28T02:49:45;3.85;;;2.80;;
25153;SDS011;47555;51.038;6.280;2023-07-28T02:52:11;4.38;;;3.00;;
25153;SDS011;47555;51.038;6.280;2023-07-28T02:54:37;4.63;;;3.28;;
25153;SDS011;47555;51.038;6.280;2023-07-28T02:57:03;6.03;;;2.90;;
25153;SDS011;47555;51.038;6.280;2023-07-28T02:59:29;5.78;;;2.95;;
25153;SDS011;47555;51.038;6.280;2023-07-28T03:01:55;4.72;;;2.70;;
25153;SDS011;47555;51.038;6.280;2023-07-28T03:04:22;3.20;;;2.80;;
25153;SDS011;47555;51.038;6.280;2023-07-28T03:06:48;4.47;;;3.22;;
25153;SDS011;47555;51.038;6.280;2023-07-28T03:09:14;4.15;;;3.75;;
25153;SDS011;47555;51.038;6.280;2023-07-28T03:11:41;3.58;;;2.80;;
25153;SDS011;47555;51.038;6.280;2023-07-28T03:14:07;4.22;;;2.90;;
25153;SDS011;47555;51.038;6.280;2023-07-28T03:16:33;4.65;;;3.30;;
25153;SDS011;47555;51.038;6.280;2023-07-28T03:18:59;4.18;;;3.10;;
25153;SDS011;47555;51.038;6.280;2023-07-28T03:21:25;5.13;;;2.90;;
25153;SDS011;47555;51.038;6.280;2023-07-28T03:23:51;3.90;;;3.15;;
25153;SDS011;47555;51.038;6.280;2023-07-28T03:26:17;3.50;;;2.80;;
25153;SDS011;47555;51.038;6.280;2023-07-28T03:28:42;4.10;;;3.03;;
25153;SDS011;47555;51.038;6.280;2023-07-28T03:31:09;5.47;;;2.92;;
25153;SDS011;47555;51.038;6.280;2023-07-28T03:33:35;3.92;;;2.92;;
25153;SDS011;47555;51.038;6.280;2023-07-28T03:36:03;4.05;;;2.92;;
25153;SDS011;47555;51.038;6.280;2023-07-28T03:38:29;4.85;;;3.17;;
25153;SDS011;47555;51.038;6.280;2023-07-28T03:40:55;4.28;;;3.05;;
25153;SDS011;47555;51.038;6.280;2023-07-28T03:43:21;4.93;;;2.97;;
25153;SDS011;47555;51.038;6.280;2023-07-28T03:45:50;4.63;;;2.28;;
25153;SDS011;47555;51.038;6.280;2023-07-28T03:48:16;5.20;;;2.88;;
25153;SDS011;47555;51.038;6.280;2023-07-28T03:50:42;4.35;;;2.80;;
25153;SDS011;47555;51.038;6.280;2023-07-28T03:53:11;4.93;;;2.80;;
25153;SDS011;47555;51.038;6.280;2023-07-28T03:55:37;3.40;;;2.83;;
25153;SDS011;47555;51.038;6.280;2023-07-28T03:58:03;3.40;;;2.58;;
25153;SDS011;47555;51.038;6.280;2023-07-28T04:00:29;5.65;;;2.92;;
25153;SDS011;47555;51.038;6.280;2023-07-28T04:02:55;3.85;;;2.97;;
25153;SDS011;47555;51.038;6.280;2023-07-28T04:05:21;5.07;;;3.15;;
25153;SDS011;47555;51.038;6.280;2023-07-28T04:07:47;3.85;;;2.92;;
25153;SDS011;47555;51.038;6.280;2023-07-28T04:10:13;4.40;;;2.72;;
25153;SDS011;47555;51.038;6.280;2023-07-28T04:12:39;4.18;;;2.50;;
25153;SDS011;47555;51.038;6.280;2023-07-28T04:15:05;4.10;;;2.55;;
25153;SDS011;47555;51.038;6.280;2023-07-28T04:17:31;4.38;;;2.60;;
25153;SDS011;47555;51.038;6.280;2023-07-28T04:19:57;2.97;;;2.03;;
25153;SDS011;47555;51.038;6.280;2023-07-28T04:22:23;4.28;;;2.45;;
25153;SDS011;47555;51.038;6.280;2023-07-28T04:24:49;2.17;;;1.90;;
25153;SDS011;47555;51.038;6.280;2023-07-28T04:27:15;3.58;;;2.40;;
25153;SDS011;47555;51.038;6.280;2023-07-28T04:29:41;3.92;;;2.58;;
25153;SDS011;47555;51.038;6.280;2023-07-28T04:32:07;2.92;;;2.05;;
25153;SDS011;47555;51.038;6.280;2023-07-28T04:34:33;3.97;;;2.22;;
25153;SDS011;47555;51.038;6.280;2023-07-28T04:36:59;2.85;;;1.90;;
25153;SDS011;47555;51.038;6.280;2023-07-28T04:39:25;3.70;;;2.47;;
25153;SDS011;47555;51.038;6.280;2023-07-28T04:41:51;3.13;;;1.73;;
25153;SDS011;47555;51.038;6.280;2023-07-28T04:44:17;3.22;;;1.92;;
25153;SDS011;47555;51.038;6.280;2023-07-28T04:46:44;3.35;;;2.20;;
25153;SDS011;47555;51.038;6.280;2023-07-28T04:49:12;2.47;;;1.85;;
25153;SDS011;47555;51.038;6.280;2023-07-28T04:51:38;3.35;;;1.92;;
25153;SDS011;47555;51.038;6.280;2023-07-28T04:54:04;2.53;;;1.73;;
25153;SDS011;47555;51.038;6.280;2023-07-28T04:56:30;2.53;;;2.05;;
25153;SDS011;47555;51.038;6.280;2023-07-28T04:58:56;3.13;;;2.40;;
25153;SDS011;47555;51.038;6.280;2023-07-28T05:01:23;2.88;;;2.10;;
25153;SDS011;47555;51.038;6.280;2023-07-28T05:03:49;4.40;;;2.70;;
25153;SDS011;47555;51.038;6.280;2023-07-28T05:06:16;6.13;;;2.85;;
25153;SDS011;47555;51.038;6.280;2023-07-28T05:08:42;3.92;;;2.58;;
25153;SDS011;47555;51.038;6.280;2023-07-28T05:11:08;5.45;;;2.58;;
25153;SDS011;47555;51.038;6.280;2023-07-28T05:13:34;5.50;;;2.45;;
25153;SDS011;47555;51.038;6.280;2023-07-28T05:16:00;3.90;;;2.08;;
25153;SDS011;47555;51.038;6.280;2023-07-28T05:18:26;4.70;;;2.80;;
25153;SDS011;47555;51.038;6.280;2023-07-28T05:20:52;4.13;;;3.22;;
25153;SDS011;47555;51.038;6.280;2023-07-28T05:23:18;5.18;;;3.03;;
25153;SDS011;47555;51.038;6.280;2023-07-28T05:25:44;6.88;;;3.40;;
25153;SDS011;47555;51.038;6.280;2023-07-28T05:28:10;6.47;;;3.20;;
25153;SDS011;47555;51.038;6.280;2023-07-28T05:30:35;4.68;;;3.58;;
25153;SDS011;47555;51.038;6.280;2023-07-28T05:33:01;5.22;;;2.97;;
25153;SDS011;47555;51.038;6.280;2023-07-28T05:35:27;4.93;;;3.42;;
25153;SDS011;47555;51.038;6.280;2023-07-28T05:37:53;4.25;;;2.60;;
25153;SDS011;47555;51.038;6.280;2023-07-28T05:40:19;3.65;;;2.75;;
25153;SDS011;47555;51.038;6.280;2023-07-28T05:42:45;6.25;;;3.35;;
25153;SDS011;47555;51.038;6.280;2023-07-28T05:45:11;5.47;;;3.60;;
25153;SDS011;47555;51.038;6.280;2023-07-28T05:47:38;6.00;;;3.40;;
25153;SDS011;47555;51.038;6.280;2023-07-28T05:50:04;5.20;;;3.30;;
25153;SDS011;47555;51.038;6.280;2023-07-28T05:52:31;6.55;;;3.20;;
25153;SDS011;47555;51.038;6.280;2023-07-28T05:54:57;6.03;;;3.60;;
25153;SDS011;47555;51.038;6.280;2023-07-28T05:57:23;6.90;;;3.50;;
25153;SDS011;47555;51.038;6.280;2023-07-28T05:59:49;6.78;;;3.75;;
25153;SDS011;47555;51.038;6.280;2023-07-28T06:02:16;5.45;;;3.40;;
25153;SDS011;47555;51.038;6.280;2023-07-28T06:04:42;9.65;;;4.22;;
25153;SDS011;47555;51.038;6.280;2023-07-28T06:07:09;7.18;;;4.68;;
25153;SDS011;47555;51.038;6.280;2023-07-28T06:09:35;7.13;;;5.15;;
25153;SDS011;47555;51.038;6.280;2023-07-28T06:12:01;8.80;;;5.43;;
25153;SDS011;47555;51.038;6.280;2023-07-28T06:14:27;10.00;;;5.90;;
25153;SDS011;47555;51.038;6.280;2023-07-28T06:16:53;8.20;;;5.00;;
25153;SDS011;47555;51.038;6.280;2023-07-28T06:19:20;13.00;;;5.97;;
25153;SDS011;47555;51.038;6.280;2023-07-28T06:21:49;11.88;;;5.70;;
25153;SDS011;47555;51.038;6.280;2023-07-28T06:24:15;9.00;;;5.40;;
25153;SDS011;47555;51.038;6.280;2023-07-28T06:26:41;9.55;;;5.00;;
25153;SDS011;47555;51.038;6.280;2023-07-28T06:29:07;11.13;;;5.70;;
25153;SDS011;47555;51.038;6.280;2023-07-28T06:31:33;11.10;;;5.38;;
25153;SDS011;47555;51.038;6.280;2023-07-28T06:33:59;7.60;;;4.57;;
25153;SDS011;47555;51.038;6.280;2023-07-28T06:36:25;8.05;;;5.40;;
25153;SDS011;47555;51.038;6.280;2023-07-28T06:38:52;7.30;;;4.88;;
25153;SDS011;47555;51.038;6.280;2023-07-28T06:41:20;8.85;;;5.60;;
25153;SDS011;47555;51.038;6.280;2023-07-28T06:43:46;9.02;;;4.53;;
25153;SDS011;47555;51.038;6.280;2023-07-28T06:46:13;8.80;;;5.20;;
25153;SDS011;47555;51.038;6.280;2023-07-28T06:48:39;9.25;;;4.85;;
25153;SDS011;47555;51.038;6.280;2023-07-28T06:51:06;9.18;;;5.18;;
25153;SDS011;47555;51.038;6.280;2023-07-28T06:53:34;7.82;;;4.72;;
25153;SDS011;47555;51.038;6.280;2023-07-28T06:56:02;6.40;;;4.35;;
25153;SDS011;47555;51.038;6.280;2023-07-28T06:58:29;7.90;;;4.55;;
25153;SDS011;47555;51.038;6.280;2023-07-28T07:00:55;7.63;;;4.47;;
25153;SDS011;47555;51.038;6.280;2023-07-28T07:03:21;6.20;;;4.18;;
25153;SDS011;47555;51.038;6.280;2023-07-28T07:05:48;5.80;;;4.22;;
25153;SDS011;47555;51.038;6.280;2023-07-28T07:08:14;7.40;;;4.18;;
25153;SDS011;47555;51.038;6.280;2023-07-28T07:10:46;6.85;;;4.03;;
25153;SDS011;47555;51.038;6.280;2023-07-28T07:15:38;8.20;;;4.28;;
25153;SDS011;47555;51.038;6.280;2023-07-28T07:18:05;5.75;;;3.80;;
25153;SDS011;47555;51.038;6.280;2023-07-28T07:20:33;6.40;;;3.97;;
25153;SDS011;47555;51.038;6.280;2023-07-28T07:22:59;6.40;;;4.53;;
25153;SDS011;47555;51.038;6.280;2023-07-28T07:25:25;5.95;;;4.07;;
25153;SDS011;47555;51.038;6.280;2023-07-28T07:27:51;6.00;;;4.38;;
25153;SDS011;47555;51.038;6.280;2023-07-28T07:30:17;6.72;;;4.43;;
25153;SDS011;47555;51.038;6.280;2023-07-28T07:32:43;6.05;;;4.10;;
25153;SDS011;47555;51.038;6.280;2023-07-28T07:35:09;6.43;;;4.47;;
25153;SDS011;47555;51.038;6.280;2023-07-28T07:37:35;8.25;;;4.45;;
25153;SDS011;47555;51.038;6.280;2023-07-28T07:40:01;8.73;;;5.18;;
25153;SDS011;47555;51.038;6.280;2023-07-28T07:42:28;9.70;;;5.28;;
25153;SDS011;47555;51.038;6.280;2023-07-28T07:44:54;7.82;;;4.50;;
25153;SDS011;47555;51.038;6.280;2023-07-28T07:47:20;6.45;;;4.50;;
25153;SDS011;47555;51.038;6.280;2023-07-28T07:49:46;9.70;;;4.35;;
25153;SDS011;47555;51.038;6.280;2023-07-28T07:52:12;8.52;;;4.47;;
25153;SDS011;47555;51.038;6.280;2023-07-28T07:54:38;6.10;;;4.55;;
25153;SDS011;47555;51.038;6.280;2023-07-28T07:57:04;4.95;;;3.67;;
25153;SDS011;47555;51.038;6.280;2023-07-28T07:59:30;6.35;;;3.70;;
25153;SDS011;47555;51.038;6.280;2023-07-28T08:01:58;7.43;;;3.83;;
25153;SDS011;47555;51.038;6.280;2023-07-28T08:04:25;6.43;;;3.65;;
25153;SDS011;47555;51.038;6.280;2023-07-28T08:06:53;7.97;;;3.70;;
25153;SDS011;47555;51.038;6.280;2023-07-28T08:09:19;5.47;;;4.00;;
25153;SDS011;47555;51.038;6.280;2023-07-28T08:11:45;5.72;;;3.90;;
25153;SDS011;47555;51.038;6.280;2023-07-28T08:14:11;5.30;;;3.95;;
25153;SDS011;47555;51.038;6.280;2023-07-28T08:16:37;6.40;;;3.90;;
25153;SDS011;47555;51.038;6.280;2023-07-28T08:19:03;5.10;;;3.78;;
25153;SDS011;47555;51.038;6.280;2023-07-28T08:21:29;6.28;;;4.18;;
25153;SDS011;47555;51.038;6.280;2023-07-28T08:23:56;5.07;;;3.45;;
25153;SDS011;47555;51.038;6.280;2023-07-28T08:26:22;5.18;;;3.80;;
25153;SDS011;47555;51.038;6.280;2023-07-28T08:28:48;7.90;;;3.78;;
25153;SDS011;47555;51.038;6.280;2023-07-28T08:31:16;5.25;;;3.90;;
25153;SDS011;47555;51.038;6.280;2023-07-28T08:33:42;6.20;;;4.10;;
25153;SDS011;47555;51.038;6.280;2023-07-28T08:36:08;4.05;;;3.65;;
25153;SDS011;47555;51.038;6.280;2023-07-28T08:38:34;5.15;;;3.78;;
25153;SDS011;47555;51.038;6.280;2023-07-28T08:41:00;4.75;;;3.40;;
25153;SDS011;47555;51.038;6.280;2023-07-28T08:43:26;3.92;;;3.47;;
25153;SDS011;47555;51.038;6.280;2023-07-28T08:45:56;5.30;;;3.60;;
25153;SDS011;47555;51.038;6.280;2023-07-28T08:48:22;4.43;;;3.15;;
25153;SDS011;47555;51.038;6.280;2023-07-28T08:50:48;3.75;;;3.08;;
25153;SDS011;47555;51.038;6.280;2023-07-28T08:53:14;3.42;;;3.08;;
25153;SDS011;47555;51.038;6.280;2023-07-28T08:55:40;4.88;;;2.88;;
25153;SDS011;47555;51.038;6.280;2023-07-28T08:58:13;2.80;;;2.45;;
25153;SDS011;47555;51.038;6.280;2023-07-28T09:00:40;3.45;;;2.72;;
25153;SDS011;47555;51.038;6.280;2023-07-28T09:03:08;2.95;;;2.30;;
25153;SDS011;47555;51.038;6.280;2023-07-28T09:05:34;2.63;;;2.42;;
25153;SDS011;47555;51.038;6.280;2023-07-28T09:08:00;2.60;;;2.40;;
25153;SDS011;47555;51.038;6.280;2023-07-28T09:10:27;2.72;;;2.20;;
25153;SDS011;47555;51.038;6.280;2023-07-28T09:13:08;2.58;;;2.10;;
25153;SDS011;47555;51.038;6.280;2023-07-28T09:15:35;3.10;;;2.03;;
25153;SDS011;47555;51.038;6.280;2023-07-28T09:18:01;2.53;;;2.33;;
25153;SDS011;47555;51.038;6.280;2023-07-28T09:20:33;2.70;;;2.30;;
25153;SDS011;47555;51.038;6.280;2023-07-28T09:23:00;4.10;;;2.33;;
25153;SDS011;47555;51.038;6.280;2023-07-28T09:25:27;2.70;;;2.17;;
25153;SDS011;47555;51.038;6.280;2023-07-28T09:27:54;3.20;;;2.05;;
25153;SDS011;47555;51.038;6.280;2023-07-28T09:30:20;3.97;;;2.50;;
25153;SDS011;47555;51.038;6.280;2023-07-28T09:32:47;3.00;;;2.35;;
25153;SDS011;47555;51.038;6.280;2023-07-28T09:35:14;3.65;;;2.97;;
25153;SDS011;47555;51.038;6.280;2023-07-28T09:37:41;3.28;;;2.40;;
25153;SDS011;47555;51.038;6.280;2023-07-28T09:40:08;3.50;;;2.40;;
25153;SDS011;47555;51.038;6.280;2023-07-28T09:42:39;3.53;;;2.00;;
25153;SDS011;47555;51.038;6.280;2023-07-28T09:45:05;2.70;;;2.33;;
25153;SDS011;47555;51.038;6.280;2023-07-28T09:47:33;2.97;;;2.28;;
25153;SDS011;47555;51.038;6.280;2023-07-28T09:50:00;2.60;;;2.40;;
25153;SDS011;47555;51.038;6.280;2023-07-28T09:52:33;2.17;;;1.98;;
25153;SDS011;47555;51.038;6.280;2023-07-28T09:55:01;2.25;;;1.90;;
25153;SDS011;47555;51.038;6.280;2023-07-28T09:57:30;2.45;;;2.00;;
25153;SDS011;47555;51.038;6.280;2023-07-28T09:59:59;2.55;;;2.33;;
25153;SDS011;47555;51.038;6.280;2023-07-28T10:02:25;2.42;;;2.03;;
25153;SDS011;47555;51.038;6.280;2023-07-28T10:04:52;3.22;;;2.00;;
25153;SDS011;47555;51.038;6.280;2023-07-28T10:07:18;2.72;;;2.50;;
25153;SDS011;47555;51.038;6.280;2023-07-28T10:09:44;5.13;;;2.55;;
25153;SDS011;47555;51.038;6.280;2023-07-28T10:12:17;3.65;;;2.10;;
25153;SDS011;47555;51.038;6.280;2023-07-28T10:14:43;2.50;;;2.30;;
25153;SDS011;47555;51.038;6.280;2023-07-28T10:17:15;2.15;;;1.95;;
25153;SDS011;47555;51.038;6.280;2023-07-28T10:19:42;2.87;;;2.00;;
25153;SDS011;47555;51.038;6.280;2023-07-28T10:22:11;2.30;;;2.10;;
25153;SDS011;47555;51.038;6.280;2023-07-28T10:25:10;2.53;;;2.10;;
25153;SDS011;47555;51.038;6.280;2023-07-28T10:27:31;2.92;;;2.30;;
25153;SDS011;47555;51.038;6.280;2023-07-28T10:29:58;3.72;;;2.63;;
25153;SDS011;47555;51.038;6.280;2023-07-28T10:32:28;2.75;;;2.20;;
25153;SDS011;47555;51.038;6.280;2023-07-28T10:35:01;3.13;;;2.38;;
25153;SDS011;47555;51.038;6.280;2023-07-28T10:37:27;2.83;;;2.40;;
25153;SDS011;47555;51.038;6.280;2023-07-28T10:42:39;2.72;;;2.03;;
25153;SDS011;47555;51.038;6.280;2023-07-28T10:45:08;2.50;;;1.77;;
25153;SDS011;47555;51.038;6.280;2023-07-28T10:47:34;2.10;;;1.90;;
25153;SDS011;47555;51.038;6.280;2023-07-28T10:50:02;1.52;;;1.42;;
25153;SDS011;47555;51.038;6.280;2023-07-28T10:52:29;1.70;;;1.50;;
25153;SDS011;47555;51.038;6.280;2023-07-28T10:54:55;1.55;;;1.45;;
25153;SDS011;47555;51.038;6.280;2023-07-28T10:57:23;1.92;;;1.67;;
25153;SDS011;47555;51.038;6.280;2023-07-28T10:59:51;3.95;;;1.88;;
25153;SDS011;47555;51.038;6.280;2023-07-28T11:02:17;2.40;;;1.65;;
25153;SDS011;47555;51.038;6.280;2023-07-28T11:04:47;1.52;;;1.40;;
25153;SDS011;47555;51.038;6.280;2023-07-28T11:07:13;1.80;;;1.70;;
25153;SDS011;47555;51.038;6.280;2023-07-28T11:09:39;2.33;;;1.70;;
25153;SDS011;47555;51.038;6.280;2023-07-28T11:12:08;1.80;;;1.65;;
25153;SDS011;47555;51.038;6.280;2023-07-28T11:14:35;2.47;;;1.60;;
25153;SDS011;47555;51.038;6.280;2023-07-28T11:17:01;1.90;;;1.63;;
25153;SDS011;47555;51.038;6.280;2023-07-28T11:19:27;3.08;;;1.50;;
25153;SDS011;47555;51.038;6.280;2023-07-28T11:21:54;1.90;;;1.73;;
25153;SDS011;47555;51.038;6.280;2023-07-28T11:24:20;2.38;;;1.50;;
25153;SDS011;47555;51.038;6.280;2023-07-28T11:26:48;2.50;;;1.45;;
25153;SDS011;47555;51.038;6.280;2023-07-28T11:29:15;1.80;;;1.70;;
25153;SDS011;47555;51.038;6.280;2023-07-28T11:31:41;2.33;;;1.98;;
25153;SDS011;47555;51.038;6.280;2023-07-28T11:34:14;1.38;;;1.20;;
25153;SDS011;47555;51.038;6.280;2023-07-28T11:36:40;1.55;;;1.45;;
25153;SDS011;47555;51.038;6.280;2023-07-28T11:39:07;1.70;;;1.60;;
25153;SDS011;47555;51.038;6.280;2023-07-28T11:41:34;1.70;;;1.42;;
25153;SDS011;47555;51.038;6.280;2023-07-28T11:44:00;2.33;;;1.85;;
25153;SDS011;47555;51.038;6.280;2023-07-28T11:49:08;1.80;;;1.60;;
25153;SDS011;47555;51.038;6.280;2023-07-28T11:51:41;3.10;;;2.10;;
25153;SDS011;47555;51.038;6.280;2023-07-28T11:54:10;2.75;;;1.92;;
25153;SDS011;47555;51.038;6.280;2023-07-28T11:56:37;3.20;;;2.17;;
25153;SDS011;47555;51.038;6.280;2023-07-28T11:59:03;3.70;;;2.28;;
25153;SDS011;47555;51.038;6.280;2023-07-28T12:01:29;2.53;;;2.05;;
25153;SDS011;47555;51.038;6.280;2023-07-28T12:03:55;2.00;;;1.70;;
25153;SDS011;47555;51.038;6.280;2023-07-28T12:06:23;1.77;;;1.60;;
25153;SDS011;47555;51.038;6.280;2023-07-28T12:08:49;2.30;;;1.80;;
25153;SDS011;47555;51.038;6.280;2023-07-28T12:11:20;1.67;;;1.55;;
25153;SDS011;47555;51.038;6.280;2023-07-28T12:13:51;3.22;;;1.90;;
25153;SDS011;47555;51.038;6.280;2023-07-28T12:18:59;1.63;;;1.52;;
25153;SDS011;47555;51.038;6.280;2023-07-28T12:21:25;2.72;;;1.50;;
25153;SDS011;47555;51.038;6.280;2023-07-28T12:23:51;2.17;;;1.52;;
25153;SDS011;47555;51.038;6.280;2023-07-28T12:26:16;1.60;;;1.50;;
25153;SDS011;47555;51.038;6.280;2023-07-28T12:28:42;1.60;;;1.50;;
25153;SDS011;47555;51.038;6.280;2023-07-28T12:31:08;2.97;;;1.50;;
25153;SDS011;47555;51.038;6.280;2023-07-28T12:33:34;4.10;;;1.80;;
25153;SDS011;47555;51.038;6.280;2023-07-28T12:36:00;1.85;;;1.42;;
25153;SDS011;47555;51.038;6.280;2023-07-28T12:38:26;2.10;;;1.67;;
25153;SDS011;47555;51.038;6.280;2023-07-28T12:40:53;3.10;;;1.85;;
25153;SDS011;47555;51.038;6.280;2023-07-28T12:43:19;1.80;;;1.40;;
25153;SDS011;47555;51.038;6.280;2023-07-28T12:45:45;1.45;;;1.35;;
25153;SDS011;47555;51.038;6.280;2023-07-28T12:48:11;1.60;;;1.50;;
25153;SDS011;47555;51.038;6.280;2023-07-28T12:50:37;2.03;;;1.50;;
25153;SDS011;47555;51.038;6.280;2023-07-28T12:53:03;1.92;;;1.75;;
25153;SDS011;47555;51.038;6.280;2023-07-28T12:55:29;1.50;;;1.40;;
25153;SDS011;47555;51.038;6.280;2023-07-28T12:57:55;1.52;;;1.42;;
25153;SDS011;47555;51.038;6.280;2023-07-28T13:00:23;1.63;;;1.40;;
25153;SDS011;47555;51.038;6.280;2023-07-28T13:02:49;1.58;;;1.48;;
25153;SDS011;47555;51.038;6.280;2023-07-28T13:05:15;2.38;;;1.52;;
25153;SDS011;47555;51.038;6.280;2023-07-28T13:07:42;2.95;;;1.48;;
25153;SDS011;47555;51.038;6.280;2023-07-28T13:10:08;2.95;;;1.90;;
25153;SDS011;47555;51.038;6.280;2023-07-28T13:12:35;2.88;;;1.63;;
25153;SDS011;47555;51.038;6.280;2023-07-28T13:15:02;2.35;;;2.13;;
25153;SDS011;47555;51.038;6.280;2023-07-28T13:17:28;2.78;;;1.70;;
25153;SDS011;47555;51.038;6.280;2023-07-28T13:19:54;2.40;;;1.75;;
25153;SDS011;47555;51.038;6.280;2023-07-28T13:22:22;2.42;;;2.00;;
25153;SDS011;47555;51.038;6.280;2023-07-28T13:24:48;2.70;;;1.88;;
25153;SDS011;47555;51.038;6.280;2023-07-28T13:27:13;2.42;;;1.52;;
25153;SDS011;47555;51.038;6.280;2023-07-28T13:29:39;5.95;;;2.10;;
25153;SDS011;47555;51.038;6.280;2023-07-28T13:32:15;3.22;;;1.85;;
25153;SDS011;47555;51.038;6.280;2023-07-28T13:34:41;2.83;;;1.80;;
25153;SDS011;47555;51.038;6.280;2023-07-28T13:37:07;3.30;;;1.60;;
25153;SDS011;47555;51.038;6.280;2023-07-28T13:39:33;1.50;;;1.40;;
25153;SDS011;47555;51.038;6.280;2023-07-28T13:41:59;1.92;;;1.25;;
25153;SDS011;47555;51.038;6.280;2023-07-28T13:44:27;2.10;;;1.70;;
25153;SDS011;47555;51.038;6.280;2023-07-28T13:46:53;1.92;;;1.60;;
25153;SDS011;47555;51.038;6.280;2023-07-28T13:49:19;1.73;;;1.60;;
25153;SDS011;47555;51.038;6.280;2023-07-28T13:51:45;1.90;;;1.70;;
25153;SDS011;47555;51.038;6.280;2023-07-28T13:54:11;2.20;;;1.85;;
25153;SDS011;47555;51.038;6.280;2023-07-28T13:56:37;2.45;;;1.70;;
25153;SDS011;47555;51.038;6.280;2023-07-28T13:59:03;1.70;;;1.60;;
25153;SDS011;47555;51.038;6.280;2023-07-28T14:01:30;1.73;;;1.23;;
25153;SDS011;47555;51.038;6.280;2023-07-28T14:03:56;1.85;;;1.55;;
25153;SDS011;47555;51.038;6.280;2023-07-28T14:06:22;2.38;;;1.50;;
25153;SDS011;47555;51.038;6.280;2023-07-28T14:08:48;2.22;;;1.60;;
25153;SDS011;47555;51.038;6.280;2023-07-28T14:11:14;1.88;;;1.60;;
25153;SDS011;47555;51.038;6.280;2023-07-28T14:13:40;2.08;;;1.88;;
25153;SDS011;47555;51.038;6.280;2023-07-28T14:16:06;3.25;;;1.77;;
25153;SDS011;47555;51.038;6.280;2023-07-28T14:18:34;2.15;;;1.95;;
25153;SDS011;47555;51.038;6.280;2023-07-28T14:21:00;2.78;;;1.85;;
25153;SDS011;47555;51.038;6.280;2023-07-28T14:23:27;3.47;;;1.92;;
25153;SDS011;47555;51.038;6.280;2023-07-28T14:25:53;2.28;;;1.75;;
25153;SDS011;47555;51.038;6.280;2023-07-28T14:28:19;2.03;;;1.52;;
25153;SDS011;47555;51.038;6.280;2023-07-28T14:30:49;2.65;;;2.00;;
25153;SDS011;47555;51.038;6.280;2023-07-28T14:33:16;2.60;;;2.10;;
25153;SDS011;47555;51.038;6.280;2023-07-28T14:35:43;2.33;;;1.50;;
25153;SDS011;47555;51.038;6.280;2023-07-28T14:38:10;1.98;;;1.70;;
25153;SDS011;47555;51.038;6.280;2023-07-28T14:40:36;1.63;;;1.48;;
25153;SDS011;47555;51.038;6.280;2023-07-28T14:43:03;1.50;;;1.40;;
25153;SDS011;47555;51.038;6.280;2023-07-28T14:45:29;1.55;;;1.30;;
25153;SDS011;47555;51.038;6.280;2023-07-28T14:47:55;1.80;;;1.50;;
25153;SDS011;47555;51.038;6.280;2023-07-28T14:50:21;2.10;;;1.60;;
25153;SDS011;47555;51.038;6.280;2023-07-28T14:52:48;2.00;;;1.70;;
25153;SDS011;47555;51.038;6.280;2023-07-28T14:55:14;2.78;;;1.75;;
25153;SDS011;47555;51.038;6.280;2023-07-28T14:57:40;1.45;;;1.35;;